Time,TemperatureF,DewpointF,PressureIn,WindDirection,WindDirectionDegrees,WindSpeedMPH,WindSpeedGustMPH,Humidity,HourlyPrecipIn,Conditions,Clouds,dailyrainin,SoftwareType,DateUTC
2013-01-06 00:00:00,37.0,32.9,30.01,WSW,248,9.0,18.0,85,0.00,,---,0.00,VWS V14.01,2013-01-06 06:00:00,
2013-01-06 00:04:00,36.4,32.9,30.02,WSW,251,9.0,13.0,87,0.00,,---,0.00,VWS V14.01,2013-01-06 06:04:00,
2013-01-06 00:09:00,36.4,32.9,30.02,SW,235,7.0,13.0,87,0.00,,---,0.00,VWS V14.01,2013-01-06 06:09:00,
2013-01-06 00:14:00,36.5,33.0,30.02,SW,234,8.0,13.0,87,0.00,,---,0.00,VWS V14.01,2013-01-06 06:14:00,
2013-01-06 00:19:00,36.5,33.0,30.02,WSW,238,9.0,13.0,87,0.00,,---,0.00,VWS V14.01,2013-01-06 06:19:00,
2013-01-06 00:24:00,36.5,33.0,30.02,WSW,240,5.0,13.0,87,0.00,,---,0.00,VWS V14.01,2013-01-06 06:24:00,
2013-01-06 00:29:00,36.6,32.8,30.02,SW,236,2.0,14.0,86,0.00,,---,0.00,VWS V14.01,2013-01-06 06:29:00,
2013-01-06 00:30:00,33.0,28.4,30.03,West,270,18.0,23.0,83,0.00,,---,0.00,VWS V14.01,2013-01-06 06:30:00,
2013-01-06 00:34:00,36.8,33.0,30.02,SW,236,4.0,15.0,86,0.00,,---,0.00,VWS V14.01,2013-01-06 06:34:00,
2013-01-06 00:39:00,36.9,33.1,30.01,SW,222,10.0,16.0,86,0.00,,---,0.00,VWS V14.01,2013-01-06 06:39:00,
2013-01-06 00:44:00,36.9,33.1,30.01,WSW,248,4.0,18.0,86,0.00,,---,0.00,VWS V14.01,2013-01-06 06:44:00,
2013-01-06 00:49:00,36.9,32.8,30.01,WSW,240,8.0,18.0,85,0.00,,---,0.00,VWS V14.01,2013-01-06 06:49:00,
2013-01-06 00:55:00,37.0,32.9,30.01,WSW,253,8.0,18.0,85,0.00,,---,0.00,VWS V14.01,2013-01-06 06:55:00,
2013-01-06 01:00:00,36.9,32.8,30.01,SW,232,16.0,16.0,85,0.00,,---,0.00,VWS V14.01,2013-01-06 07:00:00,
2013-01-06 01:05:00,36.9,32.2,30.01,WSW,242,12.0,20.0,83,0.00,,---,0.00,VWS V14.01,2013-01-06 07:05:00,
2013-01-06 01:10:00,36.8,32.4,30.01,WSW,252,12.0,21.0,84,0.00,,---,0.00,VWS V14.01,2013-01-06 07:10:00,
2013-01-06 01:15:00,36.6,32.2,30.01,WSW,238,19.0,21.0,84,0.00,,---,0.00,VWS V14.01,2013-01-06 07:15:00,
2013-01-06 01:20:00,34.8,29.6,30.02,West,270,17.0,23.0,81,0.00,,---,0.00,VWS V14.01,2013-01-06 07:20:00,
2013-01-06 01:25:00,33.5,28.6,30.03,West,269,18.0,23.0,82,0.00,,---,0.00,VWS V14.01,2013-01-06 07:25:00,
2013-01-06 01:30:00,32.9,28.0,30.03,West,271,16.0,23.0,82,0.00,,---,0.00,VWS V14.01,2013-01-06 07:30:00,
2013-01-06 01:35:00,32.6,28.0,30.03,West,266,17.0,25.0,83,0.00,,---,0.00,VWS V14.01,2013-01-06 07:35:00,
2013-01-06 01:40:00,32.4,27.8,30.03,West,273,13.0,25.0,83,0.00,,---,0.00,VWS V14.01,2013-01-06 07:40:00,
2013-01-06 01:45:00,32.3,27.4,30.04,West,259,11.0,25.0,82,0.00,,---,0.00,VWS V14.01,2013-01-06 07:45:00,
2013-01-06 01:50:00,31.8,26.6,30.04,WSW,254,26.0,26.0,81,0.00,,---,0.00,VWS V14.01,2013-01-06 07:50:00,
2013-01-06 01:55:00,31.3,26.5,30.04,WSW,254,21.0,27.0,82,0.00,,---,0.00,VWS V14.01,2013-01-06 07:55:00,
2013-01-06 02:00:00,31.1,26.5,30.05,West,259,17.0,20.0,83,0.00,,---,0.00,VWS V14.01,2013-01-06 08:00:00,
2013-01-06 02:05:00,30.7,25.3,30.05,West,265,17.0,33.0,80,0.00,,---,0.00,VWS V14.01,2013-01-06 08:05:00,
2013-01-06 02:11:00,30.4,25.3,30.05,WSW,255,16.0,33.0,81,0.00,,---,0.00,VWS V14.01,2013-01-06 08:11:00,
2013-01-06 02:16:00,30.3,25.2,30.05,West,261,15.0,33.0,81,0.00,,---,0.00,VWS V14.01,2013-01-06 08:16:00,
2013-01-06 02:21:00,30.2,25.1,30.06,West,267,16.0,33.0,81,0.00,,---,0.00,VWS V14.01,2013-01-06 08:21:00,
2013-01-06 02:26:00,30.1,25.0,30.06,West,262,20.0,33.0,81,0.00,,---,0.00,VWS V14.01,2013-01-06 08:26:00,
2013-01-06 02:30:00,29.0,23.9,30.06,West,261,16.0,24.0,81,0.00,,---,0.00,VWS V14.01,2013-01-06 08:30:00,
2013-01-06 02:31:00,30.0,24.9,30.06,West,266,18.0,20.0,81,0.00,,---,0.00,VWS V14.01,2013-01-06 08:31:00,
2013-01-06 02:36:00,29.6,24.2,30.06,WSW,254,23.0,24.0,80,0.00,,---,0.00,VWS V14.01,2013-01-06 08:36:00,
2013-01-06 02:41:00,29.4,24.0,30.06,West,268,20.0,25.0,80,0.00,,---,0.00,VWS V14.01,2013-01-06 08:41:00,
2013-01-06 02:46:00,29.3,24.2,30.06,West,281,15.0,25.0,81,0.00,,---,0.00,VWS V14.01,2013-01-06 08:46:00,
2013-01-06 02:51:00,29.3,24.2,30.06,West,267,10.0,25.0,81,0.00,,---,0.00,VWS V14.01,2013-01-06 08:51:00,
2013-01-06 02:56:00,29.3,24.2,30.06,West,265,20.0,25.0,81,0.00,,---,0.00,VWS V14.01,2013-01-06 08:56:00,
2013-01-06 03:00:00,28.7,23.0,30.07,West,264,18.0,24.0,79,0.00,,---,0.00,VWS V14.01,2013-01-06 09:00:00,
2013-01-06 03:01:00,29.2,23.8,30.06,West,263,19.0,21.0,80,0.00,,---,0.00,VWS V14.01,2013-01-06 09:01:00,
2013-01-06 03:06:00,29.2,23.8,30.06,West,259,13.0,22.0,80,0.00,,---,0.00,VWS V14.01,2013-01-06 09:06:00,
2013-01-06 03:11:00,29.2,23.8,30.06,WSW,248,24.0,24.0,80,0.00,,---,0.00,VWS V14.01,2013-01-06 09:11:00,
2013-01-06 03:16:00,29.2,24.1,30.07,WSW,250,18.0,24.0,81,0.00,,---,0.00,VWS V14.01,2013-01-06 09:16:00,
2013-01-06 03:21:00,29.1,23.7,30.07,West,264,18.0,24.0,80,0.00,,---,0.00,VWS V14.01,2013-01-06 09:21:00,
2013-01-06 03:26:00,29.0,23.6,30.06,West,265,17.0,24.0,80,0.00,,---,0.00,VWS V14.01,2013-01-06 09:26:00,
2013-01-06 03:30:00,28.5,23.4,30.07,West,259,19.0,22.0,81,0.00,,---,0.00,VWS V14.01,2013-01-06 09:30:00,
2013-01-06 03:31:00,28.9,23.5,30.06,WSW,258,15.0,20.0,80,0.00,,---,0.00,VWS V14.01,2013-01-06 09:31:00,
2013-01-06 03:36:00,28.9,23.5,30.06,West,263,15.0,22.0,80,0.00,,---,0.00,VWS V14.01,2013-01-06 09:36:00,
2013-01-06 03:41:00,28.8,23.4,30.06,West,262,16.0,23.0,80,0.00,,---,0.00,VWS V14.01,2013-01-06 09:41:00,
2013-01-06 03:46:00,28.8,23.4,30.06,West,260,12.0,23.0,80,0.00,,---,0.00,VWS V14.01,2013-01-06 09:46:00,
2013-01-06 03:51:00,28.8,23.4,30.06,WSW,255,17.0,23.0,80,0.00,,---,0.00,VWS V14.01,2013-01-06 09:51:00,
2013-01-06 03:56:00,28.7,23.0,30.06,West,265,19.0,24.0,79,0.00,,---,0.00,VWS V14.01,2013-01-06 09:56:00,
2013-01-06 04:00:00,28.4,23.9,30.08,West,275,19.0,30.0,83,0.00,,---,0.00,VWS V14.01,2013-01-06 10:00:00,
2013-01-06 04:01:00,28.6,23.2,30.07,West,270,14.0,19.0,80,0.00,,---,0.00,VWS V14.01,2013-01-06 10:01:00,
2013-01-06 04:06:00,28.6,23.2,30.07,WSW,255,14.0,22.0,80,0.00,,---,0.00,VWS V14.01,2013-01-06 10:06:00,
2013-01-06 04:11:00,28.6,23.2,30.07,West,263,13.0,22.0,80,0.00,,---,0.00,VWS V14.01,2013-01-06 10:11:00,
2013-01-06 04:16:00,28.6,23.2,30.07,West,273,13.0,22.0,80,0.00,,---,0.00,VWS V14.01,2013-01-06 10:16:00,
2013-01-06 04:21:00,28.6,23.5,30.07,West,263,19.0,22.0,81,0.00,,---,0.00,VWS V14.01,2013-01-06 10:21:00,
2013-01-06 04:26:00,28.5,23.4,30.07,West,277,12.0,22.0,81,0.00,,---,0.00,VWS V14.01,2013-01-06 10:26:00,
2013-01-06 04:30:00,27.4,22.9,30.09,West,279,23.0,29.0,83,0.00,,---,0.00,VWS V14.01,2013-01-06 10:30:00,
2013-01-06 04:31:00,28.5,23.4,30.07,West,274,12.0,19.0,81,0.00,,---,0.00,VWS V14.01,2013-01-06 10:31:00,
2013-01-06 04:36:00,28.5,23.7,30.07,West,273,15.0,19.0,82,0.00,,---,0.00,VWS V14.01,2013-01-06 10:36:00,
2013-01-06 04:41:00,28.5,23.7,30.08,West,279,14.0,22.0,82,0.00,,---,0.00,VWS V14.01,2013-01-06 10:41:00,
2013-01-06 04:46:00,28.5,23.7,30.08,West,273,13.0,22.0,82,0.00,,---,0.00,VWS V14.01,2013-01-06 10:46:00,
2013-01-06 04:51:00,28.5,24.0,30.08,West,274,13.0,22.0,83,0.00,,---,0.00,VWS V14.01,2013-01-06 10:51:00,
2013-01-06 04:56:00,28.4,23.9,30.07,WSW,254,29.0,29.0,83,0.00,,---,0.00,VWS V14.01,2013-01-06 10:56:00,
2013-01-06 05:00:00,25.3,20.0,30.11,West,269,27.0,31.0,80,0.00,,---,0.00,VWS V14.01,2013-01-06 11:00:00,
2013-01-06 05:01:00,28.4,23.9,30.08,West,272,22.0,29.0,83,0.00,,---,0.00,VWS V14.01,2013-01-06 11:01:00,
2013-01-06 05:06:00,28.3,23.8,30.08,WNW,285,24.0,29.0,83,0.00,,---,0.00,VWS V14.01,2013-01-06 11:06:00,
2013-01-06 05:11:00,28.0,23.5,30.08,WNW,290,21.0,29.0,83,0.00,,---,0.00,VWS V14.01,2013-01-06 11:11:00,
2013-01-06 05:17:00,27.6,23.1,30.08,West,273,17.0,29.0,83,0.00,,---,0.00,VWS V14.01,2013-01-06 11:17:00,
2013-01-06 05:22:00,27.5,23.3,30.09,West,263,15.0,29.0,84,0.00,,---,0.00,VWS V14.01,2013-01-06 11:22:00,
2013-01-06 05:27:00,27.4,22.9,30.09,West,262,24.0,29.0,83,0.00,,---,0.00,VWS V14.01,2013-01-06 11:27:00,
2013-01-06 05:30:00,24.7,20.0,30.12,WNW,286,17.0,27.0,82,0.00,,---,0.00,VWS V14.01,2013-01-06 11:30:00,
2013-01-06 05:32:00,27.2,22.4,30.09,West,273,21.0,29.0,82,0.00,,---,0.00,VWS V14.01,2013-01-06 11:32:00,
2013-01-06 05:37:00,27.0,22.0,30.10,West,267,18.0,29.0,81,0.00,,---,0.00,VWS V14.01,2013-01-06 11:37:00,
2013-01-06 05:42:00,26.8,22.0,30.10,West,281,18.0,29.0,82,0.00,,---,0.00,VWS V14.01,2013-01-06 11:42:00,
2013-01-06 05:47:00,26.4,21.7,30.10,West,275,27.0,29.0,82,0.00,,---,0.00,VWS V14.01,2013-01-06 11:47:00,
2013-01-06 05:52:00,25.9,20.9,30.11,West,276,25.0,29.0,81,0.00,,---,0.00,VWS V14.01,2013-01-06 11:52:00,
2013-01-06 05:57:00,25.4,20.4,30.11,West,270,27.0,30.0,81,0.00,,---,0.00,VWS V14.01,2013-01-06 11:57:00,
2013-01-06 06:00:00,23.9,19.2,30.14,WNW,292,18.0,27.0,82,0.00,,---,0.00,VWS V14.01,2013-01-06 12:00:00,
2013-01-06 06:02:00,25.1,20.1,30.11,West,278,25.0,27.0,81,0.00,,---,0.00,VWS V14.01,2013-01-06 12:02:00,
2013-01-06 06:07:00,24.9,20.2,30.11,West,277,21.0,27.0,82,0.00,,---,0.00,VWS V14.01,2013-01-06 12:07:00,
2013-01-06 06:12:00,24.9,20.2,30.11,West,267,18.0,27.0,82,0.00,,---,0.00,VWS V14.01,2013-01-06 12:12:00,
2013-01-06 06:17:00,24.9,20.2,30.11,West,280,20.0,27.0,82,0.00,,---,0.00,VWS V14.01,2013-01-06 12:17:00,
2013-01-06 06:22:00,24.9,20.2,30.12,West,277,23.0,27.0,82,0.00,,---,0.00,VWS V14.01,2013-01-06 12:22:00,
2013-01-06 06:27:00,24.7,20.0,30.12,West,278,19.0,27.0,82,0.00,,---,0.00,VWS V14.01,2013-01-06 12:27:00,
2013-01-06 06:30:00,22.5,18.4,30.15,West,274,22.0,25.0,84,0.00,,---,0.00,VWS V14.01,2013-01-06 12:30:00,
2013-01-06 06:33:00,24.5,19.5,30.13,WNW,282,24.0,27.0,81,0.00,,---,0.00,VWS V14.01,2013-01-06 12:33:00,
2013-01-06 06:38:00,24.3,19.6,30.13,WNW,286,12.0,27.0,82,0.00,,---,0.00,VWS V14.01,2013-01-06 12:38:00,
2013-01-06 06:43:00,24.3,19.6,30.13,West,269,13.0,27.0,82,0.00,,---,0.00,VWS V14.01,2013-01-06 12:43:00,
2013-01-06 06:48:00,24.3,19.9,30.13,West,275,17.0,27.0,83,0.00,,---,0.00,VWS V14.01,2013-01-06 12:48:00,
2013-01-06 06:53:00,24.2,19.8,30.13,West,268,17.0,27.0,83,0.00,,---,0.00,VWS V14.01,2013-01-06 12:53:00,
2013-01-06 06:58:00,23.9,19.2,30.14,WNW,286,17.0,27.0,82,0.00,,---,0.00,VWS V14.01,2013-01-06 12:58:00,
2013-01-06 07:00:00,21.7,17.6,30.16,West,272,16.0,28.0,84,0.00,,---,0.00,VWS V14.01,2013-01-06 13:00:00,
2013-01-06 07:03:00,23.4,19.0,30.13,WNW,294,21.0,21.0,83,0.00,,---,0.00,VWS V14.01,2013-01-06 13:03:00,
2013-01-06 07:08:00,23.2,19.1,30.14,West,278,13.0,21.0,84,0.00,,---,0.00,VWS V14.01,2013-01-06 13:08:00,
2013-01-06 07:13:00,23.0,18.9,30.14,WNW,284,17.0,21.0,84,0.00,,---,0.00,VWS V14.01,2013-01-06 13:13:00,
2013-01-06 07:18:00,23.0,18.9,30.15,WNW,284,17.0,21.0,84,0.00,,---,0.00,VWS V14.01,2013-01-06 13:18:00,
2013-01-06 07:24:00,22.6,18.2,30.15,West,277,16.0,22.0,83,0.00,,---,0.00,VWS V14.01,2013-01-06 13:24:00,
2013-01-06 07:29:00,22.5,18.4,30.15,West,278,27.0,27.0,84,0.00,,---,0.00,VWS V14.01,2013-01-06 13:29:00,
2013-01-06 07:30:00,20.9,16.8,30.18,West,273,21.0,24.0,84,0.00,,---,0.00,VWS V14.01,2013-01-06 13:30:00,
2013-01-06 07:34:00,22.4,18.0,30.16,West,275,23.0,28.0,83,0.00,,---,0.00,VWS V14.01,2013-01-06 13:34:00,
2013-01-06 07:39:00,22.2,17.8,30.16,West,280,15.0,28.0,83,0.00,,---,0.00,VWS V14.01,2013-01-06 13:39:00,
2013-01-06 07:44:00,22.0,17.6,30.16,West,272,18.0,28.0,83,0.00,,---,0.00,VWS V14.01,2013-01-06 13:44:00,
2013-01-06 07:49:00,22.0,17.6,30.16,West,280,16.0,28.0,83,0.00,,---,0.00,VWS V14.01,2013-01-06 13:49:00,
2013-01-06 07:54:00,21.7,17.3,30.16,West,280,19.0,28.0,83,0.00,,---,0.00,VWS V14.01,2013-01-06 13:54:00,
2013-01-06 07:59:00,21.7,17.6,30.16,West,273,17.0,17.0,84,0.00,,---,0.00,VWS V14.01,2013-01-06 13:59:00,
2013-01-06 08:00:00,21.4,17.6,30.20,West,270,11.0,25.0,85,0.00,,---,0.00,VWS V14.01,2013-01-06 14:00:00,
2013-01-06 08:04:00,21.7,17.9,30.17,West,266,15.0,19.0,85,0.00,,---,0.00,VWS V14.01,2013-01-06 14:04:00,
2013-01-06 08:09:00,21.6,17.5,30.17,West,275,17.0,21.0,84,0.00,,---,0.00,VWS V14.01,2013-01-06 14:09:00,
2013-01-06 08:14:00,21.4,17.3,30.18,West,273,20.0,22.0,84,0.00,,---,0.00,VWS V14.01,2013-01-06 14:14:00,
2013-01-06 08:19:00,21.4,17.3,30.18,West,270,20.0,22.0,84,0.00,,---,0.00,VWS V14.01,2013-01-06 14:19:00,
2013-01-06 08:24:00,21.1,17.0,30.18,West,273,16.0,22.0,84,0.00,,---,0.00,VWS V14.01,2013-01-06 14:24:00,
2013-01-06 08:29:00,20.8,16.7,30.18,West,265,23.0,23.0,84,0.00,,---,0.00,VWS V14.01,2013-01-06 14:29:00,
2013-01-06 08:30:00,22.0,17.9,30.22,West,271,25.0,26.0,84,0.00,,---,0.00,VWS V14.01,2013-01-06 14:30:00,
2013-01-06 08:34:00,20.8,16.7,30.19,WNW,288,18.0,25.0,84,0.00,,---,0.00,VWS V14.01,2013-01-06 14:34:00,
2013-01-06 08:39:00,20.9,17.1,30.19,West,275,18.0,25.0,85,0.00,,---,0.00,VWS V14.01,2013-01-06 14:39:00,
2013-01-06 08:44:00,21.1,17.0,30.19,West,276,17.0,25.0,84,0.00,,---,0.00,VWS V14.01,2013-01-06 14:44:00,
2013-01-06 08:50:00,21.3,17.2,30.19,West,263,14.0,25.0,84,0.00,,---,0.00,VWS V14.01,2013-01-06 14:50:00,
2013-01-06 08:55:00,21.4,17.3,30.19,West,259,13.0,25.0,84,0.00,,---,0.00,VWS V14.01,2013-01-06 14:55:00,
2013-01-06 08:59:00,21.4,17.3,30.20,West,273,11.0,15.0,84,0.00,,---,0.00,VWS V14.01,2013-01-06 14:59:00,
2013-01-06 09:00:00,23.0,18.6,30.23,West,275,21.0,25.0,83,0.00,,---,0.00,VWS V14.01,2013-01-06 15:00:00,
2013-01-06 09:04:00,21.5,17.4,30.20,WNW,288,15.0,21.0,84,0.00,,---,0.00,VWS V14.01,2013-01-06 15:04:00,
2013-01-06 09:09:00,21.8,18.3,30.20,West,281,14.0,21.0,86,0.00,,---,0.00,VWS V14.01,2013-01-06 15:09:00,
2013-01-06 09:15:00,21.9,17.8,30.21,West,267,20.0,22.0,84,0.00,,---,0.00,VWS V14.01,2013-01-06 15:15:00,
2013-01-06 09:20:00,21.8,17.7,30.21,West,270,17.0,23.0,84,0.00,,---,0.00,VWS V14.01,2013-01-06 15:20:00,
2013-01-06 09:25:00,21.9,17.8,30.22,West,268,17.0,23.0,84,0.00,,---,0.00,VWS V14.01,2013-01-06 15:25:00,
2013-01-06 09:30:00,22.1,18.0,30.22,WNW,282,20.0,25.0,84,0.00,,---,0.00,VWS V14.01,2013-01-06 15:30:00,
2013-01-06 09:35:00,22.4,18.6,30.22,West,273,21.0,25.0,85,0.00,,---,0.00,VWS V14.01,2013-01-06 15:35:00,
2013-01-06 09:40:00,22.5,18.1,30.22,West,271,20.0,25.0,83,0.00,,---,0.00,VWS V14.01,2013-01-06 15:40:00,
2013-01-06 09:45:00,22.7,18.6,30.22,West,271,16.0,25.0,84,0.00,,---,0.00,VWS V14.01,2013-01-06 15:45:00,
2013-01-06 09:50:00,22.8,18.7,30.23,West,259,16.0,25.0,84,0.00,,---,0.00,VWS V14.01,2013-01-06 15:50:00,
2013-01-06 09:55:00,22.8,18.4,30.23,West,281,16.0,25.0,83,0.00,,---,0.00,VWS V14.01,2013-01-06 15:55:00,
2013-01-06 10:00:00,23.0,18.6,30.23,WNW,282,19.0,23.0,83,0.00,,---,0.00,VWS V14.01,2013-01-06 16:00:00,
2013-01-06 10:05:00,23.7,19.3,30.23,West,279,16.0,23.0,83,0.00,,---,0.00,VWS V14.01,2013-01-06 16:05:00,
2013-01-06 10:10:00,23.6,19.2,30.23,West,270,20.0,23.0,83,0.00,,---,0.00,VWS V14.01,2013-01-06 16:10:00,
2013-01-06 10:15:00,23.4,19.0,30.24,WSW,257,20.0,23.0,83,0.00,,---,0.00,VWS V14.01,2013-01-06 16:15:00,
2013-01-06 10:20:00,23.3,18.9,30.24,West,281,16.0,23.0,83,0.00,,---,0.00,VWS V14.01,2013-01-06 16:20:00,
2013-01-06 10:25:00,23.6,19.5,30.24,West,269,18.0,23.0,84,0.00,,---,0.00,VWS V14.01,2013-01-06 16:25:00,
2013-01-06 10:30:00,23.6,19.2,30.24,West,262,12.0,17.0,83,0.00,,---,0.00,VWS V14.01,2013-01-06 16:30:00,
2013-01-06 10:36:00,23.7,19.3,30.24,West,265,15.0,17.0,83,0.00,,---,0.00,VWS V14.01,2013-01-06 16:36:00,
2013-01-06 10:41:00,24.1,19.7,30.24,West,275,10.0,17.0,83,0.00,,---,0.00,VWS V14.01,2013-01-06 16:41:00,
2013-01-06 10:46:00,24.4,20.0,30.24,West,274,17.0,22.0,83,0.00,,---,0.00,VWS V14.01,2013-01-06 16:46:00,
2013-01-06 10:51:00,24.5,20.1,30.24,West,270,16.0,22.0,83,0.00,,---,0.00,VWS V14.01,2013-01-06 16:51:00,
2013-01-06 10:56:00,24.8,20.4,30.24,West,275,15.0,22.0,83,0.00,,---,0.00,VWS V14.01,2013-01-06 16:56:00,
2013-01-06 11:00:00,26.7,21.4,30.24,West,277,14.0,23.0,80,0.00,,---,0.00,VWS V14.01,2013-01-06 17:00:00,
2013-01-06 11:01:00,25.1,20.4,30.24,West,271,17.0,21.0,82,0.00,,---,0.00,VWS V14.01,2013-01-06 17:01:00,
2013-01-06 11:06:00,25.3,20.9,30.24,West,269,16.0,21.0,83,0.00,,---,0.00,VWS V14.01,2013-01-06 17:06:00,
2013-01-06 11:11:00,25.5,20.8,30.24,West,280,15.0,22.0,82,0.00,,---,0.00,VWS V14.01,2013-01-06 17:11:00,
2013-01-06 11:16:00,26.0,21.3,30.24,West,269,19.0,22.0,82,0.00,,---,0.00,VWS V14.01,2013-01-06 17:16:00,
2013-01-06 11:21:00,26.1,21.1,30.24,West,271,15.0,22.0,81,0.00,,---,0.00,VWS V14.01,2013-01-06 17:21:00,
2013-01-06 11:26:00,26.2,21.2,30.24,WNW,291,14.0,22.0,81,0.00,,---,0.00,VWS V14.01,2013-01-06 17:26:00,
2013-01-06 11:30:00,27.9,22.5,30.25,West,273,13.0,20.0,80,0.00,,---,0.00,VWS V14.01,2013-01-06 17:30:00,
2013-01-06 11:31:00,26.5,21.2,30.24,West,279,20.0,23.0,80,0.00,,---,0.00,VWS V14.01,2013-01-06 17:31:00,
2013-01-06 11:36:00,26.9,22.1,30.24,West,278,17.0,23.0,82,0.00,,---,0.00,VWS V14.01,2013-01-06 17:36:00,
2013-01-06 11:41:00,26.8,21.8,30.24,WNW,283,18.0,23.0,81,0.00,,---,0.00,VWS V14.01,2013-01-06 17:41:00,
2013-01-06 11:46:00,27.0,22.0,30.24,West,267,15.0,23.0,81,0.00,,---,0.00,VWS V14.01,2013-01-06 17:46:00,
2013-01-06 11:51:00,27.2,22.1,30.24,West,275,14.0,23.0,81,0.00,,---,0.00,VWS V14.01,2013-01-06 17:51:00,
2013-01-06 11:57:00,27.0,21.4,30.24,West,266,18.0,23.0,79,0.00,,---,0.00,VWS V14.01,2013-01-06 17:57:00,
2013-01-06 12:00:00,28.1,22.7,30.26,WNW,282,15.0,18.0,80,0.00,,---,0.00,VWS V14.01,2013-01-06 18:00:00,
2013-01-06 12:02:00,26.9,21.9,30.24,West,274,18.0,20.0,81,0.00,,---,0.00,VWS V14.01,2013-01-06 18:02:00,
2013-01-06 12:07:00,27.0,22.0,30.25,West,270,13.0,20.0,81,0.00,,---,0.00,VWS V14.01,2013-01-06 18:07:00,
2013-01-06 12:12:00,27.3,22.0,30.25,West,270,17.0,20.0,80,0.00,,---,0.00,VWS V14.01,2013-01-06 18:12:00,
2013-01-06 12:17:00,27.8,22.7,30.25,West,278,19.0,20.0,81,0.00,,---,0.00,VWS V14.01,2013-01-06 18:17:00,
2013-01-06 12:22:00,27.7,22.4,30.25,West,279,17.0,20.0,80,0.00,,---,0.00,VWS V14.01,2013-01-06 18:22:00,
2013-01-06 12:27:00,27.8,22.4,30.25,West,268,17.0,20.0,80,0.00,,---,0.00,VWS V14.01,2013-01-06 18:27:00,
2013-01-06 12:30:00,27.6,22.8,30.25,West,270,13.0,19.0,82,0.00,,---,0.00,VWS V14.01,2013-01-06 18:30:00,
2013-01-06 12:32:00,27.9,22.2,30.25,WSW,257,17.0,17.0,79,0.00,,---,0.00,VWS V14.01,2013-01-06 18:32:00,
2013-01-06 12:37:00,28.0,22.6,30.25,West,259,14.0,18.0,80,0.00,,---,0.00,VWS V14.01,2013-01-06 18:37:00,
2013-01-06 12:42:00,28.0,22.6,30.25,West,271,11.0,18.0,80,0.00,,---,0.00,VWS V14.01,2013-01-06 18:42:00,
2013-01-06 12:47:00,28.3,23.2,30.25,West,265,15.0,18.0,81,0.00,,---,0.00,VWS V14.01,2013-01-06 18:47:00,
2013-01-06 12:52:00,28.0,22.9,30.25,WNW,284,10.0,18.0,81,0.00,,---,0.00,VWS V14.01,2013-01-06 18:52:00,
2013-01-06 12:57:00,28.1,22.7,30.26,WNW,298,14.0,18.0,80,0.00,,---,0.00,VWS V14.01,2013-01-06 18:57:00,
2013-01-06 13:00:00,28.5,22.8,30.27,West,270,12.0,17.0,79,0.00,,---,0.00,VWS V14.01,2013-01-06 19:00:00,
2013-01-06 13:02:00,28.3,22.9,30.26,West,265,15.0,18.0,80,0.00,,---,0.00,VWS V14.01,2013-01-06 19:02:00,
2013-01-06 13:30:00,29.2,22.6,30.28,West,270,12.0,18.0,76,0.00,,---,0.00,VWS V14.01,2013-01-06 19:30:00,
2013-01-06 14:00:00,29.4,21.8,30.29,West,270,14.0,19.0,73,0.00,,---,0.00,VWS V14.01,2013-01-06 20:00:00,
2013-01-06 14:30:00,30.0,22.1,30.30,West,270,11.0,16.0,72,0.00,,---,0.00,VWS V14.01,2013-01-06 20:30:00,
2013-01-06 15:00:00,29.3,21.7,30.30,WNW,292,9.0,14.0,73,0.00,,---,0.00,VWS V14.01,2013-01-06 21:00:00,
2013-01-06 15:30:00,28.6,22.0,30.32,West,270,8.0,11.0,76,0.00,,---,0.00,VWS V14.01,2013-01-06 21:30:00,
2013-01-06 16:00:00,27.4,21.8,30.33,West,270,8.0,14.0,79,0.00,,---,0.00,VWS V14.01,2013-01-06 22:00:00,
2013-01-06 16:30:00,26.5,21.2,30.34,WSW,248,6.0,11.0,80,0.00,,---,0.00,VWS V14.01,2013-01-06 22:30:00,
2013-01-06 17:00:00,25.6,20.9,30.35,WSW,248,6.0,10.0,82,0.00,,---,0.00,VWS V14.01,2013-01-06 23:00:00,
2013-01-06 17:30:00,25.2,20.5,30.36,WSW,248,2.0,7.0,82,0.00,,---,0.00,VWS V14.01,2013-01-06 23:30:00,
2013-01-06 18:00:00,24.2,19.5,30.36,WSW,248,0.0,2.0,82,0.00,,---,0.00,VWS V14.01,2013-01-07 00:00:00,
2013-01-06 18:30:00,22.7,18.3,30.37,WSW,248,0.0,0.0,83,0.00,,---,0.00,VWS V14.01,2013-01-07 00:30:00,
2013-01-06 19:00:00,21.8,18.5,30.37,WSW,248,1.0,3.0,87,0.00,,---,0.00,VWS V14.01,2013-01-07 01:00:00,
2013-01-06 19:30:00,22.0,18.7,30.37,WSW,248,1.0,3.0,87,0.00,,---,0.00,VWS V14.01,2013-01-07 01:30:00,
2013-01-06 20:00:00,21.6,17.5,30.38,SW,225,1.0,4.0,84,0.00,,---,0.00,VWS V14.01,2013-01-07 02:00:00,
2013-01-06 20:30:00,22.4,18.9,30.38,SW,225,0.0,2.0,86,0.00,,---,0.00,VWS V14.01,2013-01-07 02:30:00,
2013-01-06 21:00:00,20.9,17.4,30.38,SSW,202,0.0,2.0,86,0.00,,---,0.00,VWS V14.01,2013-01-07 03:00:00,
2013-01-06 21:30:00,19.3,15.8,30.38,SSW,202,0.0,0.0,86,0.00,,---,0.00,VWS V14.01,2013-01-07 03:30:00,
2013-01-06 22:00:00,19.2,16.8,30.38,South,180,0.0,3.0,90,0.00,,---,0.00,VWS V14.01,2013-01-07 04:00:00,
2013-01-06 22:30:00,20.0,17.5,30.37,South,180,1.0,4.0,90,0.00,,---,0.00,VWS V14.01,2013-01-07 04:30:00,
2013-01-06 23:00:00,22.0,18.5,30.37,South,180,2.0,5.0,86,0.00,,---,0.00,VWS V14.01,2013-01-07 05:00:00,
2013-01-06 23:30:00,21.8,18.3,30.37,South,180,1.0,4.0,86,0.00,,---,0.00,VWS V14.01,2013-01-07 05:30:00,